sensor_id;sensor_type;location;lat;lon;timestamp;P1;durP1;ratioP1;P2;durP2;ratioP2
18072;SDS011;9161;47.348;9.648;2024-01-15T00:03:44;24.73;;;9.10;;
18072;SDS011;9161;47.348;9.648;2024-01-15T00:08:47;31.00;;;10.53;;
18072;SDS011;9161;47.348;9.648;2024-01-15T00:13:50;28.50;;;10.80;;
18072;SDS011;9161;47.348;9.648;2024-01-15T00:18:53;31.50;;;10.23;;
18072;SDS011;9161;47.348;9.648;2024-01-15T00:23:56;24.37;;;9.90;;
18072;SDS011;9161;47.348;9.648;2024-01-15T00:28:59;25.40;;;9.63;;
18072;SDS011;9161;47.348;9.648;2024-01-15T00:34:01;24.83;;;9.83;;
18072;SDS011;9161;47.348;9.648;2024-01-15T00:39:03;28.93;;;9.93;;
18072;SDS011;9161;47.348;9.648;2024-01-15T00:44:07;18.37;;;8.27;;
18072;SDS011;9161;47.348;9.648;2024-01-15T00:49:10;24.70;;;8.73;;
18072;SDS011;9161;47.348;9.648;2024-01-15T00:54:12;22.53;;;9.30;;
18072;SDS011;9161;47.348;9.648;2024-01-15T00:59:16;29.37;;;10.57;;
18072;SDS011;9161;47.348;9.648;2024-01-15T01:04:20;23.20;;;7.93;;
18072;SDS011;9161;47.348;9.648;2024-01-15T01:09:22;25.07;;;10.40;;
18072;SDS011;9161;47.348;9.648;2024-01-15T01:14:26;28.37;;;10.57;;
18072;SDS011;9161;47.348;9.648;2024-01-15T01:19:28;25.43;;;9.03;;
18072;SDS011;9161;47.348;9.648;2024-01-15T01:24:31;19.53;;;8.20;;
18072;SDS011;9161;47.348;9.648;2024-01-15T01:29:34;17.47;;;7.40;;
18072;SDS011;9161;47.348;9.648;2024-01-15T01:34:39;18.33;;;7.93;;
18072;SDS011;9161;47.348;9.648;2024-01-15T01:39:43;18.67;;;7.43;;
18072;SDS011;9161;47.348;9.648;2024-01-15T01:44:47;19.53;;;8.03;;
18072;SDS011;9161;47.348;9.648;2024-01-15T01:49:49;23.17;;;8.40;;
18072;SDS011;9161;47.348;9.648;2024-01-15T01:54:52;29.17;;;10.13;;
18072;SDS011;9161;47.348;9.648;2024-01-15T01:59:56;22.37;;;9.13;;
18072;SDS011;9161;47.348;9.648;2024-01-15T02:04:59;20.73;;;8.23;;
18072;SDS011;9161;47.348;9.648;2024-01-15T02:10:01;22.57;;;9.37;;
18072;SDS011;9161;47.348;9.648;2024-01-15T02:15:05;20.37;;;7.90;;
18072;SDS011;9161;47.348;9.648;2024-01-15T02:20:07;20.13;;;7.53;;
18072;SDS011;9161;47.348;9.648;2024-01-15T02:25:12;21.70;;;7.97;;
18072;SDS011;9161;47.348;9.648;2024-01-15T02:30:14;20.37;;;9.13;;
18072;SDS011;9161;47.348;9.648;2024-01-15T02:35:19;19.23;;;6.73;;
18072;SDS011;9161;47.348;9.648;2024-01-15T02:40:23;17.47;;;6.30;;
18072;SDS011;9161;47.348;9.648;2024-01-15T02:45:25;20.13;;;6.03;;
18072;SDS011;9161;47.348;9.648;2024-01-15T02:50:27;16.47;;;5.83;;
18072;SDS011;9161;47.348;9.648;2024-01-15T02:55:31;13.33;;;5.60;;
18072;SDS011;9161;47.348;9.648;2024-01-15T03:00:33;14.27;;;5.10;;
18072;SDS011;9161;47.348;9.648;2024-01-15T03:05:35;17.80;;;5.87;;
18072;SDS011;9161;47.348;9.648;2024-01-15T03:10:39;19.07;;;7.67;;
18072;SDS011;9161;47.348;9.648;2024-01-15T03:15:41;20.90;;;6.47;;
18072;SDS011;9161;47.348;9.648;2024-01-15T03:20:44;14.43;;;7.17;;
18072;SDS011;9161;47.348;9.648;2024-01-15T03:25:47;25.30;;;7.20;;
18072;SDS011;9161;47.348;9.648;2024-01-15T03:30:49;18.13;;;6.60;;
18072;SDS011;9161;47.348;9.648;2024-01-15T03:35:51;19.37;;;6.80;;
18072;SDS011;9161;47.348;9.648;2024-01-15T03:40:55;17.53;;;6.60;;
18072;SDS011;9161;47.348;9.648;2024-01-15T03:45:57;22.17;;;7.20;;
18072;SDS011;9161;47.348;9.648;2024-01-15T03:50:59;19.97;;;7.40;;
18072;SDS011;9161;47.348;9.648;2024-01-15T03:56:03;24.93;;;7.50;;
18072;SDS011;9161;47.348;9.648;2024-01-15T04:01:07;18.73;;;6.13;;
18072;SDS011;9161;47.348;9.648;2024-01-15T04:06:11;23.90;;;7.53;;
18072;SDS011;9161;47.348;9.648;2024-01-15T04:11:16;20.30;;;7.13;;
18072;SDS011;9161;47.348;9.648;2024-01-15T04:16:18;18.73;;;7.30;;
18072;SDS011;9161;47.348;9.648;2024-01-15T04:21:20;24.67;;;6.60;;
18072;SDS011;9161;47.348;9.648;2024-01-15T04:26:24;18.30;;;6.63;;
18072;SDS011;9161;47.348;9.648;2024-01-15T04:31:26;17.17;;;5.47;;
18072;SDS011;9161;47.348;9.648;2024-01-15T04:36:28;16.13;;;5.43;;
18072;SDS011;9161;47.348;9.648;2024-01-15T04:41:32;16.40;;;5.30;;
18072;SDS011;9161;47.348;9.648;2024-01-15T04:46:34;15.53;;;5.83;;
18072;SDS011;9161;47.348;9.648;2024-01-15T04:51:36;15.07;;;5.13;;
18072;SDS011;9161;47.348;9.648;2024-01-15T04:56:40;16.93;;;5.03;;
18072;SDS011;9161;47.348;9.648;2024-01-15T05:01:42;13.03;;;4.10;;
18072;SDS011;9161;47.348;9.648;2024-01-15T05:06:44;21.10;;;5.63;;
18072;SDS011;9161;47.348;9.648;2024-01-15T05:11:51;15.03;;;5.17;;
18072;SDS011;9161;47.348;9.648;2024-01-15T05:16:53;16.00;;;5.27;;
18072;SDS011;9161;47.348;9.648;2024-01-15T05:21:55;16.27;;;5.40;;
18072;SDS011;9161;47.348;9.648;2024-01-15T05:27:00;19.17;;;5.70;;
18072;SDS011;9161;47.348;9.648;2024-01-15T05:32:02;15.23;;;5.27;;
18072;SDS011;9161;47.348;9.648;2024-01-15T05:37:05;12.90;;;4.53;;
18072;SDS011;9161;47.348;9.648;2024-01-15T05:42:08;20.60;;;5.37;;
18072;SDS011;9161;47.348;9.648;2024-01-15T05:47:11;10.33;;;3.57;;
18072;SDS011;9161;47.348;9.648;2024-01-15T05:52:14;9.10;;;3.63;;
18072;SDS011;9161;47.348;9.648;2024-01-15T05:57:18;8.90;;;3.13;;
18072;SDS011;9161;47.348;9.648;2024-01-15T06:02:20;5.80;;;2.50;;
18072;SDS011;9161;47.348;9.648;2024-01-15T06:07:22;8.50;;;3.07;;
18072;SDS011;9161;47.348;9.648;2024-01-15T06:12:27;6.57;;;2.80;;
18072;SDS011;9161;47.348;9.648;2024-01-15T06:17:30;6.80;;;2.20;;
18072;SDS011;9161;47.348;9.648;2024-01-15T06:22:33;11.23;;;1.87;;
18072;SDS011;9161;47.348;9.648;2024-01-15T06:27:37;6.60;;;2.57;;
18072;SDS011;9161;47.348;9.648;2024-01-15T06:32:40;5.90;;;1.77;;
18072;SDS011;9161;47.348;9.648;2024-01-15T06:37:42;6.30;;;1.60;;
18072;SDS011;9161;47.348;9.648;2024-01-15T06:42:45;5.37;;;1.93;;
18072;SDS011;9161;47.348;9.648;2024-01-15T06:47:50;4.13;;;1.80;;
18072;SDS011;9161;47.348;9.648;2024-01-15T06:52:52;5.37;;;1.83;;
18072;SDS011;9161;47.348;9.648;2024-01-15T06:57:56;5.37;;;1.93;;
18072;SDS011;9161;47.348;9.648;2024-01-15T07:02:59;3.13;;;1.73;;
18072;SDS011;9161;47.348;9.648;2024-01-15T07:08:02;4.73;;;1.10;;
18072;SDS011;9161;47.348;9.648;2024-01-15T07:13:06;5.43;;;1.70;;
18072;SDS011;9161;47.348;9.648;2024-01-15T07:18:08;3.93;;;1.37;;
18072;SDS011;9161;47.348;9.648;2024-01-15T07:23:10;5.33;;;1.83;;
18072;SDS011;9161;47.348;9.648;2024-01-15T07:28:14;8.17;;;2.10;;
18072;SDS011;9161;47.348;9.648;2024-01-15T07:33:16;7.03;;;1.77;;
18072;SDS011;9161;47.348;9.648;2024-01-15T07:38:18;4.77;;;1.27;;
18072;SDS011;9161;47.348;9.648;2024-01-15T07:43:22;3.77;;;1.47;;
18072;SDS011;9161;47.348;9.648;2024-01-15T07:48:24;3.40;;;1.47;;
18072;SDS011;9161;47.348;9.648;2024-01-15T07:53:26;5.13;;;1.63;;
18072;SDS011;9161;47.348;9.648;2024-01-15T07:58:29;3.67;;;1.70;;
18072;SDS011;9161;47.348;9.648;2024-01-15T08:03:32;4.20;;;1.90;;
18072;SDS011;9161;47.348;9.648;2024-01-15T08:08:34;4.53;;;2.00;;
18072;SDS011;9161;47.348;9.648;2024-01-15T08:13:37;8.03;;;2.37;;
18072;SDS011;9161;47.348;9.648;2024-01-15T08:18:41;9.27;;;2.37;;
18072;SDS011;9161;47.348;9.648;2024-01-15T08:23:44;7.97;;;2.30;;
18072;SDS011;9161;47.348;9.648;2024-01-15T08:28:47;7.20;;;1.90;;
18072;SDS011;9161;47.348;9.648;2024-01-15T08:33:50;6.87;;;1.73;;
18072;SDS011;9161;47.348;9.648;2024-01-15T08:38:52;4.00;;;1.40;;
18072;SDS011;9161;47.348;9.648;2024-01-15T08:43:56;4.33;;;1.80;;
18072;SDS011;9161;47.348;9.648;2024-01-15T08:48:59;4.50;;;1.77;;
18072;SDS011;9161;47.348;9.648;2024-01-15T08:54:01;4.00;;;1.67;;
18072;SDS011;9161;47.348;9.648;2024-01-15T08:59:04;3.10;;;1.20;;
18072;SDS011;9161;47.348;9.648;2024-01-15T09:04:08;4.77;;;1.90;;
18072;SDS011;9161;47.348;9.648;2024-01-15T09:09:10;4.47;;;1.53;;
18072;SDS011;9161;47.348;9.648;2024-01-15T09:14:14;5.40;;;1.93;;
18072;SDS011;9161;47.348;9.648;2024-01-15T09:19:29;4.30;;;1.73;;
18072;SDS011;9161;47.348;9.648;2024-01-15T09:24:31;7.83;;;1.70;;
18072;SDS011;9161;47.348;9.648;2024-01-15T09:29:36;3.53;;;1.40;;
18072;SDS011;9161;47.348;9.648;2024-01-15T09:34:42;4.63;;;1.67;;
18072;SDS011;9161;47.348;9.648;2024-01-15T09:39:44;4.07;;;1.57;;
18072;SDS011;9161;47.348;9.648;2024-01-15T09:44:50;3.23;;;1.27;;
18072;SDS011;9161;47.348;9.648;2024-01-15T09:49:53;3.50;;;1.20;;
18072;SDS011;9161;47.348;9.648;2024-01-15T09:54:58;3.60;;;1.17;;
18072;SDS011;9161;47.348;9.648;2024-01-15T10:00:06;4.53;;;2.17;;
18072;SDS011;9161;47.348;9.648;2024-01-15T10:05:11;6.73;;;2.20;;
18072;SDS011;9161;47.348;9.648;2024-01-15T10:10:14;6.40;;;2.00;;
18072;SDS011;9161;47.348;9.648;2024-01-15T10:15:21;3.07;;;1.30;;
18072;SDS011;9161;47.348;9.648;2024-01-15T10:20:24;2.37;;;1.10;;
18072;SDS011;9161;47.348;9.648;2024-01-15T10:25:27;3.53;;;1.60;;
18072;SDS011;9161;47.348;9.648;2024-01-15T10:30:30;3.10;;;1.27;;
18072;SDS011;9161;47.348;9.648;2024-01-15T10:35:34;3.27;;;1.00;;
18072;SDS011;9161;47.348;9.648;2024-01-15T10:40:36;3.57;;;0.90;;
18072;SDS011;9161;47.348;9.648;2024-01-15T10:45:40;2.77;;;1.27;;
18072;SDS011;9161;47.348;9.648;2024-01-15T10:50:43;3.77;;;1.97;;
18072;SDS011;9161;47.348;9.648;2024-01-15T10:55:45;3.10;;;1.50;;
18072;SDS011;9161;47.348;9.648;2024-01-15T11:00:50;3.90;;;1.20;;
18072;SDS011;9161;47.348;9.648;2024-01-15T11:05:53;7.57;;;1.60;;
18072;SDS011;9161;47.348;9.648;2024-01-15T11:10:55;5.73;;;2.40;;
18072;SDS011;9161;47.348;9.648;2024-01-15T11:15:59;1.60;;;0.53;;
18072;SDS011;9161;47.348;9.648;2024-01-15T11:21:23;2.37;;;1.30;;
18072;SDS011;9161;47.348;9.648;2024-01-15T11:26:32;3.20;;;1.10;;
18072;SDS011;9161;47.348;9.648;2024-01-15T11:37:01;1.70;;;1.03;;
18072;SDS011;9161;47.348;9.648;2024-01-15T11:42:04;1.63;;;0.93;;
18072;SDS011;9161;47.348;9.648;2024-01-15T11:47:08;4.40;;;1.37;;
18072;SDS011;9161;47.348;9.648;2024-01-15T11:52:16;3.13;;;0.77;;
18072;SDS011;9161;47.348;9.648;2024-01-15T11:57:21;2.30;;;0.70;;
18072;SDS011;9161;47.348;9.648;2024-01-15T12:02:35;2.60;;;1.00;;
18072;SDS011;9161;47.348;9.648;2024-01-15T12:07:37;5.27;;;1.00;;
18072;SDS011;9161;47.348;9.648;2024-01-15T12:12:47;2.17;;;0.93;;
18072;SDS011;9161;47.348;9.648;2024-01-15T12:18:00;2.33;;;1.30;;
18072;SDS011;9161;47.348;9.648;2024-01-15T12:23:03;5.30;;;1.30;;
18072;SDS011;9161;47.348;9.648;2024-01-15T12:28:08;5.87;;;1.37;;
18072;SDS011;9161;47.348;9.648;2024-01-15T12:33:11;5.77;;;2.10;;
18072;SDS011;9161;47.348;9.648;2024-01-15T12:38:13;3.80;;;1.90;;
18072;SDS011;9161;47.348;9.648;2024-01-15T12:43:16;3.47;;;1.70;;
18072;SDS011;9161;47.348;9.648;2024-01-15T12:48:20;3.47;;;1.50;;
18072;SDS011;9161;47.348;9.648;2024-01-15T12:53:23;6.07;;;2.43;;
18072;SDS011;9161;47.348;9.648;2024-01-15T12:58:25;5.23;;;2.13;;
18072;SDS011;9161;47.348;9.648;2024-01-15T13:03:29;6.17;;;2.10;;
18072;SDS011;9161;47.348;9.648;2024-01-15T13:08:32;4.17;;;1.33;;
18072;SDS011;9161;47.348;9.648;2024-01-15T13:13:34;6.53;;;2.00;;
18072;SDS011;9161;47.348;9.648;2024-01-15T13:18:39;5.80;;;2.17;;
18072;SDS011;9161;47.348;9.648;2024-01-15T13:23:42;4.17;;;1.73;;
18072;SDS011;9161;47.348;9.648;2024-01-15T13:28:44;1.67;;;0.60;;
18072;SDS011;9161;47.348;9.648;2024-01-15T13:33:48;3.17;;;0.97;;
18072;SDS011;9161;47.348;9.648;2024-01-15T13:38:51;1.97;;;0.80;;
18072;SDS011;9161;47.348;9.648;2024-01-15T13:43:54;2.27;;;0.83;;
18072;SDS011;9161;47.348;9.648;2024-01-15T13:48:58;2.80;;;1.10;;
18072;SDS011;9161;47.348;9.648;2024-01-15T13:54:00;1.77;;;0.97;;
18072;SDS011;9161;47.348;9.648;2024-01-15T13:59:04;2.50;;;0.73;;
18072;SDS011;9161;47.348;9.648;2024-01-15T14:04:08;5.20;;;0.50;;
18072;SDS011;9161;47.348;9.648;2024-01-15T14:09:11;1.10;;;0.50;;
18072;SDS011;9161;47.348;9.648;2024-01-15T14:14:15;1.87;;;0.70;;
18072;SDS011;9161;47.348;9.648;2024-01-15T14:19:19;1.63;;;0.70;;
18072;SDS011;9161;47.348;9.648;2024-01-15T14:24:22;2.67;;;0.73;;
18072;SDS011;9161;47.348;9.648;2024-01-15T14:29:25;4.10;;;0.90;;
18072;SDS011;9161;47.348;9.648;2024-01-15T14:34:28;1.30;;;0.70;;
18072;SDS011;9161;47.348;9.648;2024-01-15T14:39:31;4.27;;;1.33;;
18072;SDS011;9161;47.348;9.648;2024-01-15T14:44:34;1.07;;;0.50;;
18072;SDS011;9161;47.348;9.648;2024-01-15T14:49:39;2.00;;;0.70;;
18072;SDS011;9161;47.348;9.648;2024-01-15T14:54:42;1.10;;;0.60;;
18072;SDS011;9161;47.348;9.648;2024-01-15T14:59:44;0.80;;;0.30;;
18072;SDS011;9161;47.348;9.648;2024-01-15T15:04:48;1.87;;;0.70;;
18072;SDS011;9161;47.348;9.648;2024-01-15T15:09:50;2.60;;;1.10;;
18072;SDS011;9161;47.348;9.648;2024-01-15T15:14:53;0.67;;;0.50;;
18072;SDS011;9161;47.348;9.648;2024-01-15T15:20:09;0.70;;;0.43;;
18072;SDS011;9161;47.348;9.648;2024-01-15T15:25:12;0.43;;;0.27;;
18072;SDS011;9161;47.348;9.648;2024-01-15T15:30:15;1.30;;;0.70;;
18072;SDS011;9161;47.348;9.648;2024-01-15T15:35:19;2.07;;;0.57;;
18072;SDS011;9161;47.348;9.648;2024-01-15T15:40:21;2.00;;;0.80;;
18072;SDS011;9161;47.348;9.648;2024-01-15T15:45:24;4.47;;;1.10;;
18072;SDS011;9161;47.348;9.648;2024-01-15T15:50:28;2.10;;;1.07;;
18072;SDS011;9161;47.348;9.648;2024-01-15T15:55:34;2.07;;;1.00;;
18072;SDS011;9161;47.348;9.648;2024-01-15T16:00:37;2.50;;;0.93;;
18072;SDS011;9161;47.348;9.648;2024-01-15T16:05:41;2.43;;;0.87;;
18072;SDS011;9161;47.348;9.648;2024-01-15T16:10:52;4.50;;;1.20;;
18072;SDS011;9161;47.348;9.648;2024-01-15T16:15:55;0.63;;;0.37;;
18072;SDS011;9161;47.348;9.648;2024-01-15T16:21:19;2.30;;;1.10;;
18072;SDS011;9161;47.348;9.648;2024-01-15T16:26:42;3.83;;;1.13;;
18072;SDS011;9161;47.348;9.648;2024-01-15T16:31:50;2.27;;;0.60;;
18072;SDS011;9161;47.348;9.648;2024-01-15T16:36:54;1.53;;;0.50;;
18072;SDS011;9161;47.348;9.648;2024-01-15T16:41:56;2.47;;;1.00;;
18072;SDS011;9161;47.348;9.648;2024-01-15T16:46:59;2.93;;;1.27;;
18072;SDS011;9161;47.348;9.648;2024-01-15T16:52:09;2.67;;;0.63;;
18072;SDS011;9161;47.348;9.648;2024-01-15T16:57:13;5.93;;;2.20;;
18072;SDS011;9161;47.348;9.648;2024-01-15T17:02:15;4.87;;;1.70;;
18072;SDS011;9161;47.348;9.648;2024-01-15T17:07:18;4.50;;;1.33;;
18072;SDS011;9161;47.348;9.648;2024-01-15T17:12:21;1.07;;;0.70;;
18072;SDS011;9161;47.348;9.648;2024-01-15T17:17:23;2.23;;;1.00;;
18072;SDS011;9161;47.348;9.648;2024-01-15T17:22:30;2.87;;;1.13;;
18072;SDS011;9161;47.348;9.648;2024-01-15T17:27:33;4.90;;;1.53;;
18072;SDS011;9161;47.348;9.648;2024-01-15T17:32:36;5.07;;;1.57;;
18072;SDS011;9161;47.348;9.648;2024-01-15T17:37:41;3.63;;;1.63;;
18072;SDS011;9161;47.348;9.648;2024-01-15T17:42:43;3.10;;;1.60;;
18072;SDS011;9161;47.348;9.648;2024-01-15T17:47:47;8.37;;;2.83;;
18072;SDS011;9161;47.348;9.648;2024-01-15T17:52:52;5.77;;;3.07;;
18072;SDS011;9161;47.348;9.648;2024-01-15T17:57:54;7.43;;;2.90;;
18072;SDS011;9161;47.348;9.648;2024-01-15T18:02:57;8.03;;;3.43;;
18072;SDS011;9161;47.348;9.648;2024-01-15T18:08:00;9.73;;;4.10;;
18072;SDS011;9161;47.348;9.648;2024-01-15T18:13:03;13.03;;;4.43;;
18072;SDS011;9161;47.348;9.648;2024-01-15T18:18:05;8.73;;;3.73;;
18072;SDS011;9161;47.348;9.648;2024-01-15T18:23:09;7.87;;;3.97;;
18072;SDS011;9161;47.348;9.648;2024-01-15T18:28:18;12.60;;;4.50;;
18072;SDS011;9161;47.348;9.648;2024-01-15T18:33:21;10.07;;;4.30;;
18072;SDS011;9161;47.348;9.648;2024-01-15T18:38:25;7.93;;;3.27;;
18072;SDS011;9161;47.348;9.648;2024-01-15T18:43:29;10.73;;;3.10;;
18072;SDS011;9161;47.348;9.648;2024-01-15T18:48:31;8.00;;;2.57;;
18072;SDS011;9161;47.348;9.648;2024-01-15T18:53:36;6.97;;;3.03;;
18072;SDS011;9161;47.348;9.648;2024-01-15T18:58:40;4.73;;;2.13;;
18072;SDS011;9161;47.348;9.648;2024-01-15T19:03:46;4.83;;;2.23;;
18072;SDS011;9161;47.348;9.648;2024-01-15T19:08:51;4.10;;;1.97;;
18072;SDS011;9161;47.348;9.648;2024-01-15T19:13:54;7.40;;;2.30;;
18072;SDS011;9161;47.348;9.648;2024-01-15T19:18:57;8.87;;;1.93;;
18072;SDS011;9161;47.348;9.648;2024-01-15T19:24:01;5.17;;;1.80;;
18072;SDS011;9161;47.348;9.648;2024-01-15T19:29:04;5.13;;;2.00;;
18072;SDS011;9161;47.348;9.648;2024-01-15T19:34:08;3.73;;;1.83;;
18072;SDS011;9161;47.348;9.648;2024-01-15T19:39:13;5.70;;;2.13;;
18072;SDS011;9161;47.348;9.648;2024-01-15T19:44:15;4.23;;;1.67;;
18072;SDS011;9161;47.348;9.648;2024-01-15T20:02:04;6.03;;;2.10;;
18072;SDS011;9161;47.348;9.648;2024-01-15T20:07:07;7.20;;;1.70;;
18072;SDS011;9161;47.348;9.648;2024-01-15T20:12:12;6.13;;;1.73;;
18072;SDS011;9161;47.348;9.648;2024-01-15T20:17:22;3.13;;;1.70;;
18072;SDS011;9161;47.348;9.648;2024-01-15T20:22:26;5.87;;;2.13;;
18072;SDS011;9161;47.348;9.648;2024-01-15T20:27:34;6.63;;;2.33;;
18072;SDS011;9161;47.348;9.648;2024-01-15T20:32:38;4.63;;;1.70;;
18072;SDS011;9161;47.348;9.648;2024-01-15T20:37:42;3.70;;;1.73;;
18072;SDS011;9161;47.348;9.648;2024-01-15T20:42:44;4.50;;;2.10;;
18072;SDS011;9161;47.348;9.648;2024-01-15T20:47:48;4.03;;;2.03;;
18072;SDS011;9161;47.348;9.648;2024-01-15T20:52:59;3.30;;;1.40;;
18072;SDS011;9161;47.348;9.648;2024-01-15T20:58:03;5.30;;;2.00;;
18072;SDS011;9161;47.348;9.648;2024-01-15T21:03:08;3.63;;;1.60;;
18072;SDS011;9161;47.348;9.648;2024-01-15T21:08:10;8.53;;;2.40;;
18072;SDS011;9161;47.348;9.648;2024-01-15T21:13:14;3.70;;;1.50;;
18072;SDS011;9161;47.348;9.648;2024-01-15T21:18:18;2.87;;;1.10;;
18072;SDS011;9161;47.348;9.648;2024-01-15T21:23:20;2.67;;;1.20;;
18072;SDS011;9161;47.348;9.648;2024-01-15T21:28:24;4.27;;;1.17;;
18072;SDS011;9161;47.348;9.648;2024-01-15T21:33:32;2.40;;;1.00;;
18072;SDS011;9161;47.348;9.648;2024-01-15T21:38:37;2.90;;;1.27;;
18072;SDS011;9161;47.348;9.648;2024-01-15T21:43:40;4.47;;;1.10;;
18072;SDS011;9161;47.348;9.648;2024-01-15T21:48:44;5.67;;;2.10;;
18072;SDS011;9161;47.348;9.648;2024-01-15T21:53:48;3.27;;;1.70;;
18072;SDS011;9161;47.348;9.648;2024-01-15T21:58:50;4.00;;;1.57;;
18072;SDS011;9161;47.348;9.648;2024-01-15T22:03:53;5.07;;;1.60;;
18072;SDS011;9161;47.348;9.648;2024-01-15T22:08:55;4.27;;;2.00;;
18072;SDS011;9161;47.348;9.648;2024-01-15T22:13:57;6.03;;;2.00;;
18072;SDS011;9161;47.348;9.648;2024-01-15T22:19:01;6.10;;;2.20;;
18072;SDS011;9161;47.348;9.648;2024-01-15T22:24:04;4.97;;;1.60;;
18072;SDS011;9161;47.348;9.648;2024-01-15T22:29:06;5.23;;;1.87;;
18072;SDS011;9161;47.348;9.648;2024-01-15T22:34:10;4.17;;;1.90;;
18072;SDS011;9161;47.348;9.648;2024-01-15T22:39:12;4.70;;;1.57;;
18072;SDS011;9161;47.348;9.648;2024-01-15T22:44:14;4.73;;;2.03;;
18072;SDS011;9161;47.348;9.648;2024-01-15T22:49:18;5.30;;;2.03;;
18072;SDS011;9161;47.348;9.648;2024-01-15T22:54:20;4.60;;;1.23;;
18072;SDS011;9161;47.348;9.648;2024-01-15T22:59:22;5.60;;;2.00;;
18072;SDS011;9161;47.348;9.648;2024-01-15T23:04:26;3.50;;;2.10;;
18072;SDS011;9161;47.348;9.648;2024-01-15T23:09:28;5.20;;;2.20;;
18072;SDS011;9161;47.348;9.648;2024-01-15T23:14:30;4.73;;;1.57;;
18072;SDS011;9161;47.348;9.648;2024-01-15T23:19:34;4.17;;;1.83;;
18072;SDS011;9161;47.348;9.648;2024-01-15T23:24:36;5.27;;;1.80;;
18072;SDS011;9161;47.348;9.648;2024-01-15T23:29:38;7.33;;;2.23;;
18072;SDS011;9161;47.348;9.648;2024-01-15T23:34:42;4.87;;;1.90;;
18072;SDS011;9161;47.348;9.648;2024-01-15T23:39:44;7.87;;;2.23;;
18072;SDS011;9161;47.348;9.648;2024-01-15T23:51:10;5.60;;;2.00;;
18072;SDS011;9161;47.348;9.648;2024-01-15T23:56:12;4.40;;;1.93;;
